Alexander, North Dakota
Current Conditions -  °F | °C
As of 10:52 AM on Tuesday 21 Oct 2014 (Local Time) from KISN Reporting Station
Clear Clear  
Wind Chill: 55°   Ceiling: Unl
Heat Index: 55°   Visibility: 10mi
Dew Point: 39°   Wind: 7mph
Humidity: 55%   Direction: 140°SE
Pressure: 29.71"   Gusts: NA
Location:  47.84°N, 103.64°W
Report Text: KISN 211552Z AUTO 14006KT 10SM CLR 13/04 A2971 RMK AO2 SLP061 T01280039
Loading
Personal Weather Stations






























Interactive Weather Map
Tropical Storm Tracking
New forecast layout! Learn more

10-Day Weather Forecast

Advertisements
Track Severe Weather on mobile